Time;durP1;ratioP1;P1;durP2;ratioP2;P2;SDS_P1;SDS_P2;PMS_P1;PMS_P2;Temp;Humidity;BMP_temperature;BMP_pressure;BME280_temperature;BME280_humidity;BME280_pressure;Samples;Min_cycle;Max_cycle;Signal;HPM_P1;HPM_P2
2022/11/26 00:00:52;;;;;;;36.73;23.27;;;;;;;3.17;96.33;101148.20;1747079;81;21092;-84
2022/11/26 00:03:21;;;;;;;41.73;24.02;;;;;;;3.20;96.23;101150.81;1746914;82;20986;-84
2022/11/26 00:05:52;;;;;;;41.47;23.80;;;;;;;3.19;95.91;101143.91;1747079;81;21487;-85
2022/11/26 00:08:27;;;;;;;41.03;23.27;;;;;;;3.19;95.85;101147.80;1746746;82;21021;-85
2022/11/26 00:10:54;;;;;;;35.77;22.87;;;;;;;3.22;96.15;101141.33;1754327;81;20968;-84
2022/11/26 00:13:26;;;;;;;38.83;23.47;;;;;;;3.25;96.00;101149.11;1734098;81;21533;-84
2022/11/26 00:15:53;;;;;;;38.93;22.23;;;;;;;3.23;95.93;101144.34;1738153;80;21074;-85
2022/11/26 00:18:25;;;;;;;36.70;23.07;;;;;;;3.24;95.88;101141.31;1739199;81;21001;-85
2022/11/26 00:20:59;;;;;;;37.43;22.30;;;;;;;3.22;95.88;101141.77;1763136;81;21065;-85
2022/11/26 00:23:27;;;;;;;36.67;22.20;;;;;;;3.24;96.02;101146.50;1764590;81;21000;-84
2022/11/26 00:26:01;;;;;;;40.43;23.60;;;;;;;3.29;96.23;101151.28;1748428;81;21995;-84
2022/11/26 00:28:39;;;;;;;34.67;23.40;;;;;;;3.32;96.31;101150.00;1734875;81;21194;-84
2022/11/26 00:31:13;;;;;;;43.20;24.63;;;;;;;3.36;96.46;101149.16;1764764;81;21038;-85
2022/11/26 00:33:40;;;;;;;38.53;23.60;;;;;;;3.39;96.35;101156.09;1764589;81;21460;-84
2022/11/26 00:36:27;;;;;;;41.07;24.27;;;;;;;3.40;96.38;101157.38;1760599;81;21029;-84
2022/11/26 00:38:59;;;;;;;55.20;29.87;;;;;;;3.41;96.27;101157.83;1747202;81;21001;-85
2022/11/26 00:41:32;;;;;;;50.07;26.57;;;;;;;3.44;96.37;101159.14;1742983;80;21140;-85
2022/11/26 00:43:59;;;;;;;48.70;26.53;;;;;;;3.40;95.88;101158.67;1754390;81;21027;-85
2022/11/26 00:46:26;;;;;;;57.70;27.97;;;;;;;3.39;95.91;101162.57;1764387;81;20944;-85
2022/11/26 00:48:53;;;;;;;59.40;28.37;;;;;;;3.36;95.83;101158.23;1747116;81;21040;-85
2022/11/26 00:51:24;;;;;;;56.27;27.07;;;;;;;3.34;96.03;101159.51;1761259;81;20995;-85
2022/11/26 00:53:59;;;;;;;40.80;22.57;;;;;;;3.38;96.35;101160.81;1764307;81;21136;-85
2022/11/26 00:56:27;;;;;;;42.77;24.27;;;;;;;3.38;96.17;101165.59;1764364;81;21017;-84
2022/11/26 00:58:54;;;;;;;45.23;24.83;;;;;;;3.38;96.03;101162.11;1764428;81;21054;-85
2022/11/26 01:01:31;;;;;;;46.37;25.67;;;;;;;3.37;96.06;101166.44;1731256;82;20936;-85
2022/11/26 01:03:57;;;;;;;65.63;30.93;;;;;;;3.40;96.19;101165.59;1730714;82;21011;-85
2022/11/26 01:06:29;;;;;;;65.80;32.17;;;;;;;3.43;96.30;101163.00;1731358;82;21994;-85
2022/11/26 01:08:56;;;;;;;72.57;32.73;;;;;;;3.40;96.00;101162.99;1730688;82;20981;-85
2022/11/26 01:11:24;;;;;;;39.70;23.50;;;;;;;3.38;96.09;101160.41;1731205;82;21024;-85
2022/11/26 01:13:53;;;;;;;37.57;22.03;;;;;;;3.35;95.96;101165.15;1732350;82;21046;-85
2022/11/26 01:16:24;;;;;;;39.53;21.90;;;;;;;3.37;96.23;101168.16;1732307;82;21011;-85
2022/11/26 01:18:54;;;;;;;34.53;20.90;;;;;;;3.39;96.41;101159.98;1728912;82;21118;-85
2022/11/26 01:21:23;;;;;;;34.55;21.42;;;;;;;3.44;96.81;101166.05;1716050;82;21011;-85
2022/11/26 01:23:50;;;;;;;33.83;20.97;;;;;;;3.50;96.97;101169.52;1722981;82;20993;-85
2022/11/26 01:26:24;;;;;;;35.13;21.20;;;;;;;3.55;97.00;101173.44;1731261;82;21007;-85
2022/11/26 01:28:51;;;;;;;33.93;20.43;;;;;;;3.60;97.11;101179.48;1760758;81;21027;-85
2022/11/26 01:31:22;;;;;;;36.27;21.70;;;;;;;3.62;96.93;101173.88;1749882;81;21106;-85
2022/11/26 01:33:49;;;;;;;36.17;22.33;;;;;;;3.62;96.74;101175.61;1726716;82;21516;-85
2022/11/26 01:36:33;;;;;;;34.93;22.30;;;;;;;3.63;96.81;101170.85;1728736;82;21496;-85
2022/11/26 01:39:11;;;;;;;39.80;23.10;;;;;;;3.66;96.84;101176.94;1717680;82;21039;-85
2022/11/26 01:42:13;;;;;;;35.87;21.33;;;;;;;3.69;96.92;101178.69;1730056;82;21426;-84
2022/11/26 01:44:41;;;;;;;34.43;20.67;;;;;;;3.74;97.04;101178.23;1723890;82;21061;-85
2022/11/26 01:47:23;;;;;;;30.97;20.17;;;;;;;3.76;97.03;101173.50;1725502;82;21486;-85
2022/11/26 01:50:29;;;;;;;33.97;21.47;;;;;;;3.82;97.27;101174.38;1725219;82;21063;-85
2022/11/26 01:53:14;;;;;;;31.77;19.83;;;;;;;3.85;97.02;101173.09;1720314;82;21036;-84
2022/11/26 01:55:53;;;;;;;30.43;19.67;;;;;;;3.82;96.89;101174.38;1729765;82;21079;-85
2022/11/26 01:58:25;;;;;;;32.13;20.50;;;;;;;3.86;97.29;101174.84;1732900;82;21949;-84
2022/11/26 02:00:52;;;;;;;33.20;21.37;;;;;;;3.92;97.41;101184.79;1721249;82;21493;-85
2022/11/26 02:03:22;;;;;;;35.80;21.17;;;;;;;3.96;97.25;101183.06;1725244;82;21034;-84
2022/11/26 02:06:07;;;;;;;32.00;20.43;;;;;;;3.97;97.27;101180.48;1725276;82;21038;-85
2022/11/26 02:08:34;;;;;;;32.67;20.63;;;;;;;4.01;97.27;101187.84;1719908;82;21274;-85
2022/11/26 02:11:21;;;;;;;45.43;29.37;;;;;;;4.03;97.20;101184.83;1725206;82;21129;-85
2022/11/26 02:13:52;;;;;;;36.73;23.33;;;;;;;4.07;97.27;101188.28;1717885;82;21069;-84
2022/11/26 02:17:02;;;;;;;33.00;21.57;;;;;;;4.08;97.15;101189.59;1700717;83;21103;-84
2022/11/26 02:20:11;;;;;;;31.85;20.52;;;;;;;4.09;97.26;101188.72;1716199;83;21543;-84
2022/11/26 02:22:56;;;;;;;35.17;20.97;;;;;;;4.14;97.46;101193.94;1694261;83;21053;-84
2022/11/26 02:25:47;;;;;;;39.83;22.73;;;;;;;4.15;97.26;101194.35;1702797;83;21302;-84
2022/11/26 02:28:50;;;;;;;45.83;28.90;;;;;;;4.15;97.22;101190.46;1706438;83;21036;-84
2022/11/26 02:32:01;;;;;;;50.07;27.40;;;;;;;4.16;97.50;101187.89;1722346;83;21075;-83
2022/11/26 02:34:51;;;;;;;44.08;25.10;;;;;;;4.18;97.30;101196.52;1699876;83;21030;-84
2022/11/26 02:37:30;;;;;;;35.30;21.52;;;;;;;4.17;97.32;101199.13;1737596;81;21041;-84
2022/11/26 02:39:57;;;;;;;36.07;21.73;;;;;;;4.11;97.04;101190.90;1670458;81;21190;-84
2022/11/26 02:42:31;;;;;;;36.00;22.27;;;;;;;4.14;97.50;101198.69;1726486;81;20992;-84
2022/11/26 02:45:03;;;;;;;33.17;21.00;;;;;;;4.17;97.70;101201.28;1726743;81;21583;-84
2022/11/26 02:47:33;;;;;;;32.10;20.60;;;;;;;4.20;97.52;101199.98;1725464;81;21484;-84
2022/11/26 02:50:04;;;;;;;35.60;21.20;;;;;;;4.19;97.42;101201.30;1714553;82;20992;-84
2022/11/26 02:52:34;;;;;;;34.77;21.70;;;;;;;4.23;97.71;101203.88;1746515;81;21872;-84
2022/11/26 02:55:02;;;;;;;36.17;21.97;;;;;;;4.25;97.69;101202.16;1736688;81;21022;-84
2022/11/26 02:57:33;;;;;;;33.00;21.23;;;;;;;4.25;97.52;101203.90;1723165;82;21106;-85
2022/11/26 03:00:00;;;;;;;33.10;21.20;;;;;;;4.29;97.90;101208.66;1723299;82;21003;-85
2022/11/26 03:02:35;;;;;;;35.23;21.83;;;;;;;4.34;98.04;101204.34;1713355;82;21558;-84
2022/11/26 03:05:05;;;;;;;31.77;20.70;;;;;;;4.39;97.97;101209.97;1724553;81;21563;-84
2022/11/26 03:07:33;;;;;;;33.10;21.00;;;;;;;4.41;97.99;101208.25;1714838;82;21047;-84
2022/11/26 03:10:01;;;;;;;34.77;21.33;;;;;;;4.45;97.97;101216.46;1704448;83;21075;-84
2022/11/26 03:12:29;;;;;;;33.23;21.40;;;;;;;4.48;98.02;101216.90;1715141;81;21634;-84
2022/11/26 03:14:56;;;;;;;31.10;20.23;;;;;;;4.52;98.06;101221.25;1718847;82;21588;-84
2022/11/26 03:17:24;;;;;;;32.43;21.23;;;;;;;4.54;97.80;101224.69;1728043;82;21089;-85
2022/11/26 03:19:51;;;;;;;35.07;21.93;;;;;;;4.57;97.90;101223.42;1712992;82;21021;-84
2022/11/26 03:22:18;;;;;;;34.93;22.47;;;;;;;4.58;97.67;101225.58;1731606;82;21004;-84
2022/11/26 03:24:46;;;;;;;33.10;21.10;;;;;;;4.57;97.74;101232.51;1739936;82;21022;-84
2022/11/26 03:27:16;;;;;;;33.00;21.40;;;;;;;4.59;97.82;101232.05;1738218;82;21046;-84
2022/11/26 03:29:43;;;;;;;35.63;21.00;;;;;;;4.63;97.87;101237.70;1727075;82;21038;-85
2022/11/26 03:32:10;;;;;;;34.73;22.13;;;;;;;4.63;97.62;101239.44;1725668;82;21017;-85
2022/11/26 03:34:37;;;;;;;34.20;21.73;;;;;;;4.60;97.65;101237.70;1736110;81;21028;-85
2022/11/26 03:37:04;;;;;;;37.97;22.20;;;;;;;4.63;97.65;101239.44;1736561;81;21487;-84
2022/11/26 03:39:30;;;;;;;32.77;21.40;;;;;;;4.61;97.47;101238.56;1725478;83;21007;-84
2022/11/26 03:41:57;;;;;;;34.37;20.87;;;;;;;4.62;97.67;101238.98;1729035;81;21145;-85
2022/11/26 03:44:25;;;;;;;37.30;22.67;;;;;;;4.63;97.80;101246.78;1723905;83;21038;-85
2022/11/26 03:46:52;;;;;;;33.50;20.67;;;;;;;4.67;97.96;101248.95;1730826;82;21089;-84
2022/11/26 03:49:19;;;;;;;31.47;21.03;;;;;;;4.72;98.28;101244.63;1728247;83;21046;-85
2022/11/26 03:51:46;;;;;;;30.73;21.00;;;;;;;4.75;98.21;101252.41;1712226;82;21106;-84
2022/11/26 03:54:13;;;;;;;29.67;20.03;;;;;;;4.78;98.11;101249.81;1720280;82;21136;-85
2022/11/26 03:56:40;;;;;;;29.83;19.37;;;;;;;4.76;98.09;101248.08;1727657;82;21495;-84
2022/11/26 03:59:07;;;;;;;29.17;18.50;;;;;;;4.81;98.65;101248.52;1724800;82;21008;-85
2022/11/26 04:01:34;;;;;;;18.90;12.23;;;;;;;4.94;99.45;101244.20;1719157;82;21567;-84
2022/11/26 04:04:01;;;;;;;22.20;12.90;;;;;;;5.05;99.64;101248.95;1725249;82;21038;-84
2022/11/26 04:06:28;;;;;;;17.20;11.40;;;;;;;5.16;100.00;101246.34;1725169;82;21086;-85
2022/11/26 04:08:55;;;;;;;21.40;13.47;;;;;;;5.30;100.00;101245.02;1721854;82;21041;-85
2022/11/26 04:11:22;;;;;;;20.07;12.00;;;;;;;5.42;100.00;101246.73;1708506;82;21029;-85
2022/11/26 04:13:49;;;;;;;19.37;12.23;;;;;;;5.52;100.00;101250.61;1709024;82;21400;-85
2022/11/26 04:16:16;;;;;;;13.77;9.33;;;;;;;5.63;100.00;101247.12;1722572;82;21258;-85
2022/11/26 04:18:43;;;;;;;15.63;9.30;;;;;;;5.69;100.00;101256.20;1725078;82;21552;-85
2022/11/26 04:21:10;;;;;;;14.00;8.87;;;;;;;5.75;100.00;101255.73;1725390;82;21469;-85
2022/11/26 04:23:37;;;;;;;14.90;9.10;;;;;;;5.79;100.00;101261.36;1725168;82;21000;-85
2022/11/26 04:26:04;;;;;;;13.23;8.43;;;;;;;5.81;100.00;101268.70;1725410;82;21003;-85
2022/11/26 04:28:31;;;;;;;15.00;9.07;;;;;;;5.84;100.00;101264.37;1725186;82;21035;-85
2022/11/26 04:30:58;;;;;;;12.93;8.70;;;;;;;5.85;100.00;101269.58;1725975;82;21096;-85
2022/11/26 04:33:26;;;;;;;12.63;8.00;;;;;;;5.88;100.00;101273.47;1729781;82;21015;-85
2022/11/26 04:35:53;;;;;;;12.07;8.33;;;;;;;5.88;100.00;101271.31;1725365;82;21054;-85
2022/11/26 04:38:20;;;;;;;13.93;9.20;;;;;;;5.91;100.00;101275.20;1725058;82;21009;-84
2022/11/26 04:40:47;;;;;;;11.90;8.20;;;;;;;5.92;100.00;101274.31;1725900;82;21082;-85
2022/11/26 04:43:14;;;;;;;13.93;7.90;;;;;;;5.93;100.00;101276.95;1731413;82;21557;-85
2022/11/26 04:45:41;;;;;;;12.53;8.00;;;;;;;5.97;100.00;101284.31;1725425;82;21480;-84
2022/11/26 04:48:08;;;;;;;13.17;8.50;;;;;;;6.02;100.00;101285.16;1719919;82;21487;-84
2022/11/26 04:50:35;;;;;;;14.17;8.03;;;;;;;6.02;100.00;101289.92;1717088;82;21047;-84
2022/11/26 04:53:02;;;;;;;9.93;8.07;;;;;;;6.06;100.00;101293.37;1725255;82;21528;-84
2022/11/26 04:55:30;;;;;;;11.03;7.93;;;;;;;6.08;100.00;101297.28;1721558;82;22030;-84
2022/11/26 04:57:56;;;;;;;14.10;8.33;;;;;;;6.09;100.00;101291.19;1723067;82;21030;-84
2022/11/26 05:00:24;;;;;;;9.97;7.23;;;;;;;6.10;100.00;101301.61;1720924;82;21042;-84
2022/11/26 05:02:51;;;;;;;12.13;7.30;;;;;;;6.10;100.00;101296.84;1725316;82;21481;-84
2022/11/26 05:05:21;;;;;;;11.00;7.50;;;;;;;6.09;100.00;101299.86;1723120;82;21009;-84
2022/11/26 05:07:48;;;;;;;12.03;7.70;;;;;;;6.08;100.00;101301.19;1717947;82;21128;-84
2022/11/26 05:10:16;;;;;;;10.80;7.30;;;;;;;6.09;100.00;101299.86;1725275;82;21616;-85
2022/11/26 05:12:43;;;;;;;11.13;7.57;;;;;;;6.07;100.00;101306.83;1725230;82;21083;-83
2022/11/26 05:15:10;;;;;;;11.43;8.30;;;;;;;6.10;100.00;101307.25;1727077;82;20996;-83
2022/11/26 05:17:37;;;;;;;11.90;7.73;;;;;;;6.08;100.00;101322.01;1726290;82;21296;-83
2022/11/26 05:20:06;;;;;;;11.40;8.00;;;;;;;6.07;100.00;101316.35;1724159;82;21814;-83
2022/11/26 05:22:33;;;;;;;12.97;7.87;;;;;;;6.05;100.00;101317.67;1725249;82;21011;-82
2022/11/26 05:25:00;;;;;;;12.37;7.80;;;;;;;6.05;100.00;101326.78;1725421;82;20995;-83
2022/11/26 05:27:27;;;;;;;10.80;7.60;;;;;;;6.04;100.00;101326.33;1722683;82;21021;-82
2022/11/26 05:29:54;;;;;;;13.67;8.03;;;;;;;6.03;100.00;101327.22;1709846;82;21074;-82
2022/11/26 05:32:21;;;;;;;10.77;7.57;;;;;;;6.02;100.00;101333.30;1727031;82;21145;-82
2022/11/26 05:34:48;;;;;;;11.40;7.83;;;;;;;6.02;100.00;101327.66;1720693;82;21014;-82
2022/11/26 05:37:15;;;;;;;11.10;7.53;;;;;;;6.01;100.00;101331.14;1720305;82;21040;-82
2022/11/26 05:39:42;;;;;;;12.50;8.13;;;;;;;6.02;100.00;101334.61;1723255;82;21246;-82
2022/11/26 05:42:09;;;;;;;11.43;7.80;;;;;;;6.02;100.00;101336.77;1728997;82;21583;-82
2022/11/26 05:44:37;;;;;;;12.47;7.77;;;;;;;6.08;100.00;101341.53;1720318;82;21521;-81
2022/11/26 05:47:04;;;;;;;10.80;7.27;;;;;;;6.09;100.00;101340.64;1725154;82;21030;-81
2022/11/26 05:49:31;;;;;;;11.00;7.43;;;;;;;6.11;100.00;101346.72;1725458;82;21023;-80
2022/11/26 05:51:58;;;;;;;13.17;7.70;;;;;;;6.11;100.00;101348.87;1721820;82;21041;-79
2022/11/26 05:54:26;;;;;;;10.97;7.63;;;;;;;6.16;100.00;101350.17;1723814;82;21452;-80
2022/11/26 05:56:53;;;;;;;11.47;7.53;;;;;;;6.18;100.00;101354.92;1725334;82;21172;-81
2022/11/26 05:59:20;;;;;;;12.70;8.27;;;;;;;6.15;100.00;101356.23;1720479;82;21005;-81
2022/11/26 06:01:47;;;;;;;11.73;8.33;;;;;;;6.15;100.00;101362.33;1719952;82;21078;-81
2022/11/26 06:04:14;;;;;;;10.67;7.90;;;;;;;6.13;100.00;101356.25;1725597;82;21080;-81
2022/11/26 06:06:41;;;;;;;10.33;7.63;;;;;;;6.15;100.00;101356.23;1725375;82;21038;-82
2022/11/26 06:09:08;;;;;;;12.27;8.27;;;;;;;6.12;100.00;101362.75;1725230;82;21276;-82
2022/11/26 06:11:36;;;;;;;11.20;7.67;;;;;;;6.13;100.00;101367.97;1725441;82;21515;-83
2022/11/26 06:14:03;;;;;;;9.03;7.03;;;;;;;6.13;100.00;101365.80;1723967;82;21030;-83
2022/11/26 06:16:30;;;;;;;9.83;7.77;;;;;;;6.11;100.00;101368.84;1724059;82;21483;-83
2022/11/26 06:18:58;;;;;;;10.93;8.00;;;;;;;6.10;100.00;101371.89;1711583;82;21494;-83
2022/11/26 06:21:25;;;;;;;12.63;8.67;;;;;;;6.11;100.00;101376.21;1722940;82;22062;-85
2022/11/26 06:23:52;;;;;;;11.87;7.20;;;;;;;6.11;100.00;101376.21;1723056;82;21600;-83
2022/11/26 06:26:19;;;;;;;10.83;7.77;;;;;;;6.11;100.00;101385.31;1729872;82;20992;-82
2022/11/26 06:28:45;;;;;;;9.53;7.10;;;;;;;6.11;100.00;101391.83;1724404;82;21035;-82
2022/11/26 06:31:12;;;;;;;10.57;7.93;;;;;;;6.13;100.00;101395.30;1723121;82;21063;-82
2022/11/26 06:33:40;;;;;;;8.27;6.30;;;;;;;6.13;100.00;101398.34;1747771;81;21096;-82
2022/11/26 06:36:08;;;;;;;8.43;6.57;;;;;;;6.07;100.00;101402.23;1726086;81;21026;-83
2022/11/26 06:38:36;;;;;;;10.17;6.93;;;;;;;6.05;100.00;101410.52;1705043;82;21024;-82
2022/11/26 06:41:08;;;;;;;9.47;7.50;;;;;;;6.05;100.00;101420.92;1717817;82;21040;-83
2022/11/26 06:43:35;;;;;;;12.80;7.00;;;;;;;6.01;100.00;101423.53;1714339;82;22161;-83
2022/11/26 06:46:07;;;;;;;9.50;7.23;;;;;;;5.99;100.00;101423.10;1722856;82;21370;-83
2022/11/26 06:48:35;;;;;;;10.07;6.50;;;;;;;5.97;100.00;101426.13;1735045;81;21056;-83
2022/11/26 06:51:10;;;;;;;9.77;7.43;;;;;;;5.97;100.00;101436.09;1725266;81;21035;-83
2022/11/26 06:53:37;;;;;;;10.50;7.50;;;;;;;5.98;100.00;101433.06;1739428;81;20939;-82
2022/11/26 06:56:12;;;;;;;9.63;6.43;;;;;;;5.99;100.00;101436.97;1733193;81;21141;-83
2022/11/26 06:58:40;;;;;;;11.60;7.67;;;;;;;6.03;100.00;101441.73;1711492;82;21275;-82
2022/11/26 07:01:13;;;;;;;9.93;6.67;;;;;;;6.03;100.00;101441.29;1710700;82;20981;-83
2022/11/26 07:03:40;;;;;;;10.83;7.03;;;;;;;6.01;100.00;101437.84;1751551;81;21045;-84
2022/11/26 07:06:23;;;;;;;11.23;7.40;;;;;;;6.03;100.00;101444.33;1730370;81;21543;-83
2022/11/26 07:08:53;;;;;;;12.40;7.80;;;;;;;6.01;100.00;101446.95;1727428;82;21007;-82
2022/11/26 07:11:20;;;;;;;9.98;6.90;;;;;;;6.07;100.00;101451.69;1722941;82;21524;-83
2022/11/26 07:13:48;;;;;;;9.67;6.87;;;;;;;6.06;100.00;101451.27;1711792;82;21030;-83
2022/11/26 07:16:15;;;;;;;9.30;6.30;;;;;;;6.04;100.00;101451.26;1717784;82;21088;-83
2022/11/26 07:18:44;;;;;;;9.07;6.63;;;;;;;6.03;100.00;101459.50;1711597;82;21021;-83
2022/11/26 07:21:12;;;;;;;11.37;7.10;;;;;;;6.06;100.00;101467.75;1711170;82;21022;-83
2022/11/26 07:23:40;;;;;;;9.93;6.33;;;;;;;6.11;100.00;101466.45;1713363;83;21169;-83
2022/11/26 07:26:09;;;;;;;8.37;6.43;;;;;;;6.11;100.00;101472.52;1713089;83;21042;-84
2022/11/26 07:28:38;;;;;;;9.85;6.75;;;;;;;6.11;100.00;101474.27;1729939;82;21536;-84
2022/11/26 07:31:09;;;;;;;7.83;6.20;;;;;;;6.08;100.00;101471.66;1728843;82;21072;-85
2022/11/26 07:33:37;;;;;;;9.67;6.23;;;;;;;6.05;100.00;101473.83;1723626;82;21628;-84
2022/11/26 07:36:08;;;;;;;9.00;5.70;;;;;;;6.03;100.00;101479.03;1719949;82;21107;-84
2022/11/26 07:38:35;;;;;;;9.07;5.93;;;;;;;6.00;100.00;101477.73;1725289;82;21091;-80
2022/11/26 07:41:06;;;;;;;9.37;6.20;;;;;;;5.97;100.00;101488.59;1720157;82;21056;-82
2022/11/26 07:43:35;;;;;;;8.83;5.50;;;;;;;5.94;100.00;101491.20;1731098;82;21523;-84
2022/11/26 07:46:04;;;;;;;8.17;5.73;;;;;;;5.92;100.00;101498.09;1719283;82;21591;-82
2022/11/26 07:48:33;;;;;;;7.67;5.90;;;;;;;5.91;100.00;101501.14;1726866;82;21935;-81
2022/11/26 07:51:01;;;;;;;8.63;6.20;;;;;;;5.93;100.00;101509.85;1730394;82;21463;-82
2022/11/26 07:53:31;;;;;;;10.07;6.80;;;;;;;5.91;100.00;101513.28;1727232;82;22304;-81
2022/11/26 07:55:58;;;;;;;9.73;6.37;;;;;;;5.90;100.00;101518.89;1723727;82;21076;-83
2022/11/26 07:58:28;;;;;;;7.17;5.23;;;;;;;5.86;100.00;101513.72;1723556;82;21584;-82
2022/11/26 08:00:55;;;;;;;7.80;6.10;;;;;;;5.83;100.00;101518.48;1732564;82;22017;-81
2022/11/26 08:03:22;;;;;;;8.53;5.67;;;;;;;5.81;100.00;101524.97;1722632;82;21305;-84
2022/11/26 08:05:50;;;;;;;9.17;5.90;;;;;;;5.80;100.00;101524.98;1728360;82;21477;-87
2022/11/26 08:08:17;;;;;;;8.97;6.10;;;;;;;5.82;100.00;101528.47;1706220;82;21029;-85
2022/11/26 08:11:00;;;;;;;8.33;6.00;;;;;;;5.83;100.00;101532.79;1721792;82;21000;-84
2022/11/26 08:13:30;;;;;;;10.23;6.20;;;;;;;5.88;100.00;101533.66;1731318;82;21136;-82
2022/11/26 08:15:57;;;;;;;12.53;9.90;;;;;;;5.85;100.00;101539.28;1718166;82;21011;-82
2022/11/26 08:18:24;;;;;;;10.93;7.43;;;;;;;5.78;100.00;101540.58;1734820;81;21480;-82
2022/11/26 08:20:56;;;;;;;13.67;8.03;;;;;;;5.80;100.00;101540.16;1709560;82;21552;-82
2022/11/26 08:23:24;;;;;;;20.37;12.27;;;;;;;5.83;100.00;101544.50;1722587;81;21038;-84
2022/11/26 08:25:52;;;;;;;14.77;10.30;;;;;;;5.81;100.00;101542.32;1716700;81;21308;-83
2022/11/26 08:28:19;;;;;;;17.90;11.27;;;;;;;5.75;100.00;101556.63;1717719;83;21404;-83
2022/11/26 08:30:47;;;;;;;26.73;18.20;;;;;;;5.75;100.00;101551.42;1721249;82;21533;-83
2022/11/26 08:33:15;;;;;;;25.60;16.77;;;;;;;5.80;100.00;101553.61;1731353;82;21503;-84
2022/11/26 08:35:42;;;;;;;19.70;14.80;;;;;;;5.81;100.00;101560.53;1724567;82;21069;-84
2022/11/26 08:38:09;;;;;;;14.57;10.03;;;;;;;5.82;100.00;101566.19;1731069;82;21109;-84
2022/11/26 08:40:36;;;;;;;14.60;9.27;;;;;;;5.81;100.00;101561.39;1731055;82;21094;-84
2022/11/26 08:43:03;;;;;;;13.37;9.77;;;;;;;5.85;100.00;101572.70;1716816;81;21047;-84
2022/11/26 08:45:30;;;;;;;18.80;15.40;;;;;;;5.88;100.00;101571.84;1719736;82;20993;-83
2022/11/26 08:47:57;;;;;;;19.20;14.57;;;;;;;5.86;100.00;101573.12;1730839;82;21275;-84
2022/11/26 08:50:24;;;;;;;18.73;15.37;;;;;;;5.90;100.00;101577.44;1726513;82;21115;-83
2022/11/26 08:52:51;;;;;;;21.63;16.60;;;;;;;5.90;100.00;101576.58;1730327;82;21035;-84
2022/11/26 08:55:18;;;;;;;39.13;22.90;;;;;;;5.88;100.00;101579.64;1726811;81;21030;-84
2022/11/26 08:57:46;;;;;;;43.60;25.90;;;;;;;5.85;100.00;101588.31;1719647;83;21007;-84
2022/11/26 09:00:14;;;;;;;35.40;21.47;;;;;;;5.83;100.00;101587.87;1728358;82;21044;-83
2022/11/26 09:02:41;;;;;;;41.47;22.73;;;;;;;5.84;100.00;101591.75;1709168;82;21124;-83
2022/11/26 09:05:08;;;;;;;81.37;38.20;;;;;;;5.91;100.00;101593.95;1710641;82;20995;-82
2022/11/26 09:07:36;;;;;;;53.80;27.27;;;;;;;5.93;100.00;101594.42;1723764;83;21026;-82
2022/11/26 09:10:03;;;;;;;117.10;53.97;;;;;;;5.95;100.00;101599.17;1723246;82;21050;-82
2022/11/26 09:12:30;;;;;;;107.80;45.03;;;;;;;5.93;100.00;101598.33;1725458;82;21019;-82
2022/11/26 09:14:57;;;;;;;118.70;52.53;;;;;;;5.92;100.00;101603.48;1729492;82;21109;-82
2022/11/26 09:17:25;;;;;;;81.13;37.00;;;;;;;5.94;100.00;101607.00;1722480;82;21003;-82
2022/11/26 09:19:52;;;;;;;179.17;79.90;;;;;;;5.98;100.00;101609.58;1732354;82;21062;-82
2022/11/26 09:22:19;;;;;;;93.57;45.60;;;;;;;6.02;100.00;101611.78;1725173;82;21035;-82
2022/11/26 09:24:47;;;;;;;67.13;34.13;;;;;;;6.02;100.00;101609.17;1727172;82;20996;-82
2022/11/26 09:27:14;;;;;;;48.00;24.87;;;;;;;6.01;100.00;101614.83;1730194;82;21521;-82
2022/11/26 09:29:41;;;;;;;78.17;34.27;;;;;;;6.02;100.00;101617.84;1725392;82;21030;-83
2022/11/26 09:32:08;;;;;;;92.10;42.77;;;;;;;6.00;100.00;101618.71;1732077;82;21445;-82
2022/11/26 09:34:36;;;;;;;42.00;23.20;;;;;;;6.08;100.00;101623.49;1720242;82;21027;-82
2022/11/26 09:37:03;;;;;;;44.07;22.03;;;;;;;6.18;100.00;101622.64;1725283;82;21027;-82
2022/11/26 09:39:31;;;;;;;29.27;16.50;;;;;;;6.18;100.00;101622.64;1725430;82;21071;-82
2022/11/26 09:42:20;;;;;;;15.73;10.63;;;;;;;6.20;100.00;101623.92;1725279;82;21015;-82
2022/11/26 09:45:24;;;;;;;43.17;22.57;;;;;;;6.26;100.00;101620.02;1692643;82;20999;-81
2022/11/26 09:47:53;;;;;;;41.47;22.07;;;;;;;6.33;100.00;101631.33;1726742;82;21102;-82
2022/11/26 09:50:34;;;;;;;33.40;17.63;;;;;;;6.36;100.00;101627.41;1725422;82;21132;-82
2022/11/26 09:53:28;;;;;;;83.00;35.07;;;;;;;6.40;100.00;101627.83;1725195;82;21129;-82
2022/11/26 09:55:55;;;;;;;67.37;28.23;;;;;;;6.36;100.00;101633.92;1720087;82;21267;-82
2022/11/26 09:58:37;;;;;;;35.67;18.67;;;;;;;6.31;100.00;101640.86;1725117;82;21054;-82
2022/11/26 10:01:06;;;;;;;60.20;26.73;;;;;;;6.28;100.00;101639.56;1731917;82;21008;-81
2022/11/26 10:03:36;;;;;;;91.23;40.13;;;;;;;6.24;100.00;101642.61;1729562;82;21033;-81
2022/11/26 10:06:42;;;;;;;53.78;26.35;;;;;;;6.22;100.00;101649.09;1722895;82;27544;-83
2022/11/26 10:09:18;;;;;;;61.50;31.13;;;;;;;6.17;100.00;101649.96;1711714;82;21491;-82
2022/11/26 10:12:17;;;;;;;47.87;24.30;;;;;;;6.15;100.00;101648.67;1725758;82;21011;-82
2022/11/26 10:14:58;;;;;;;55.93;24.97;;;;;;;6.13;100.00;101645.20;1727214;82;21496;-82
2022/11/26 10:17:37;;;;;;;35.00;20.13;;;;;;;6.13;100.00;101654.30;1718441;82;21580;-82
2022/11/26 10:20:43;;;;;;;39.67;22.00;;;;;;;6.11;100.00;101656.03;1716630;82;21911;-82
2022/11/26 10:23:24;;;;;;;43.37;27.07;;;;;;;6.13;100.00;101658.65;1723564;82;21023;-82
2022/11/26 10:25:56;;;;;;;43.77;26.97;;;;;;;6.11;100.00;101659.08;1726597;81;21018;-82
2022/11/26 10:28:47;;;;;;;25.97;18.07;;;;;;;6.14;100.00;101659.08;1726662;82;21031;-83
2022/11/26 10:31:28;;;;;;;46.27;23.57;;;;;;;6.26;100.00;101659.08;1723317;82;20992;-83
2022/11/26 10:34:05;;;;;;;59.57;27.00;;;;;;;6.35;100.00;101659.54;1726391;82;21145;-83
2022/11/26 10:36:41;;;;;;;33.40;18.10;;;;;;;6.41;100.00;101663.44;1749172;81;21089;-83
2022/11/26 10:39:13;;;;;;;60.10;31.13;;;;;;;6.40;100.00;101661.28;1734990;82;21029;-83
2022/11/26 10:41:40;;;;;;;34.57;20.37;;;;;;;6.40;100.00;101664.29;1713697;82;21056;-83
2022/11/26 10:44:41;;;;;;;37.37;23.63;;;;;;;6.37;100.00;101665.59;1713859;82;21538;-83
2022/11/26 10:47:29;;;;;;;36.97;22.30;;;;;;;6.36;100.00;101667.34;1713659;82;21139;-83
2022/11/26 10:50:04;;;;;;;44.13;26.17;;;;;;;6.34;100.00;101671.67;1726076;83;21511;-83
2022/11/26 10:52:33;;;;;;;35.73;22.40;;;;;;;6.35;100.00;101672.12;1731572;82;21570;-83
2022/11/26 10:55:17;;;;;;;37.83;21.37;;;;;;;6.33;100.00;101674.29;1739490;81;21003;-83
2022/11/26 10:57:53;;;;;;;26.53;16.87;;;;;;;6.28;100.00;101667.77;1735476;81;21009;-83
2022/11/26 11:00:38;;;;;;;34.13;20.93;;;;;;;6.31;100.00;101675.58;1732421;81;22020;-83
2022/11/26 11:03:19;;;;;;;28.73;19.20;;;;;;;6.37;100.00;101672.11;1704872;81;21034;-83
2022/11/26 11:05:46;;;;;;;24.53;16.30;;;;;;;6.35;100.00;101679.08;1700538;81;21059;-83
2022/11/26 11:08:29;;;;;;;26.50;17.17;;;;;;;6.35;100.00;101669.95;1723397;81;21158;-83
2022/11/26 11:11:01;;;;;;;35.67;21.43;;;;;;;6.34;100.00;101674.71;1717640;81;21589;-83
2022/11/26 11:13:45;;;;;;;42.03;24.87;;;;;;;6.37;100.00;101677.31;1726482;81;21110;-83
2022/11/26 11:16:29;;;;;;;36.97;23.63;;;;;;;6.36;100.00;101679.05;1698865;81;21505;-83
2022/11/26 11:19:00;;;;;;;31.80;20.40;;;;;;;6.32;100.00;101677.73;1717053;82;21077;-83
2022/11/26 11:21:35;;;;;;;31.83;21.03;;;;;;;6.34;100.00;101681.22;1697088;82;21089;-83
2022/11/26 11:24:21;;;;;;;33.33;20.27;;;;;;;6.34;100.00;101683.38;1727753;82;21080;-82
2022/11/26 11:26:54;;;;;;;31.27;20.33;;;;;;;6.31;100.00;101688.59;1706044;82;21121;-82
2022/11/26 11:29:32;;;;;;;27.00;18.40;;;;;;;6.28;100.00;101684.69;1714016;82;21488;-82
2022/11/26 11:32:03;;;;;;;27.40;17.20;;;;;;;6.31;100.00;101689.89;1716104;82;21614;-82
2022/11/26 11:34:38;;;;;;;29.53;19.40;;;;;;;6.26;100.00;101692.92;1719388;82;21026;-82
2022/11/26 11:37:15;;;;;;;49.63;28.77;;;;;;;6.27;100.00;101690.77;1716228;83;21293;-82